Time;durP1;ratioP1;P1;durP2;ratioP2;P2;SDS_P1;SDS_P2;PMS_P1;PMS_P2;Temp;Humidity;BMP_temperature;BMP_pressure;BME280_temperature;BME280_humidity;BME280_pressure;Samples;Min_cycle;Max_cycle;Signal;HPM_P1;HPM_P2
2021/09/01 00:01:08;;;;;;;;;;;;;;;14.20;98.33;98155.53;1736508;81;25538;-90
2021/09/01 00:03:34;;;;;;;;;;;;;;;14.16;98.32;98160.73;1733618;81;21978;-90
2021/09/01 00:06:05;;;;;;;;;;;;;;;14.14;98.35;98154.75;1732271;82;26647;-90
2021/09/01 00:08:31;;;;;;;;;;;;;;;14.14;98.35;98154.27;1736320;80;25242;-90
2021/09/01 00:10:57;;;;;;;;;;;;;;;14.13;98.35;98154.41;1707528;81;20306;-90
2021/09/01 00:13:24;;;;;;;;;;;;;;;14.13;98.36;98158.34;1736088;82;24803;-90
2021/09/01 00:15:50;;;;;;;;;;;;;;;14.17;98.39;98161.91;1737620;81;22063;-90
2021/09/01 00:18:16;;;;;;;;;;;;;;;14.16;98.45;98166.83;1731080;81;26064;-90
2021/09/01 00:20:42;;;;;;;;;;;;;;;14.13;98.43;98163.61;1733921;81;25353;-90
2021/09/01 00:23:14;;;;;;;;;;;;;;;14.10;98.48;98158.16;1738418;80;20243;-90
2021/09/01 00:25:36;;;;;;;;;;;;;;;14.08;98.48;98161.39;1738378;81;24633;-90
2021/09/01 00:28:09;;;;;;;;;;;;;;;14.06;98.48;98166.46;1738321;80;22029;-90
2021/09/01 00:30:35;;;;;;;;;;;;;;;14.03;98.49;98168.03;1729712;81;26133;-90
2021/09/01 00:33:01;;;;;;;;;;;;;;;13.99;98.48;98170.59;1731958;82;24525;-90
2021/09/01 00:35:27;;;;;;;;;;;;;;;13.95;98.50;98175.30;1735604;80;20596;-90
2021/09/01 00:37:53;;;;;;;;;;;;;;;13.91;98.49;98177.83;1736487;80;24755;-90
2021/09/01 00:40:19;;;;;;;;;;;;;;;13.92;98.51;98182.61;1730669;81;20497;-90
2021/09/01 00:42:45;;;;;;;;;;;;;;;13.93;98.54;98177.22;1738125;81;27007;-90
2021/09/01 00:45:12;;;;;;;;;;;;;;;13.92;98.58;98186.55;1735878;80;24589;-90
2021/09/01 00:47:39;;;;;;;;;;;;;;;13.89;98.59;98184.20;1737930;80;20208;-90
2021/09/01 00:50:08;;;;;;;;;;;;;;;13.87;98.61;98183.02;1733417;80;24754;-90
2021/09/01 00:52:39;;;;;;;;;;;;;;;13.87;98.67;98186.95;1731840;80;21980;-89
2021/09/01 00:55:06;;;;;;;;;;;;;;;13.87;98.67;98189.59;1732630;81;26033;-90
2021/09/01 00:57:40;;;;;;;;;;;;;;;13.85;98.70;98186.76;1731621;80;24488;-89
2021/09/01 01:00:15;;;;;;;;;;;;;;;13.82;98.72;98187.84;1735221;81;20219;-89
2021/09/01 01:02:44;;;;;;;;;;;;;;;13.81;98.71;98187.48;1736466;80;25558;-89
2021/09/01 01:05:18;;;;;;;;;;;;;;;13.80;98.72;98186.66;1733401;80;21942;-89
2021/09/01 01:07:45;;;;;;;;;;;;;;;13.80;98.73;98186.66;1735605;81;26029;-89
2021/09/01 01:10:13;;;;;;;;;;;;;;;13.79;98.76;98190.75;1736497;80;25040;-89
2021/09/01 01:12:45;;;;;;;;;;;;;;;13.78;98.79;98189.08;1730701;82;20250;-89
2021/09/01 01:15:26;;;;;;;;;;;;;;;13.78;98.79;98187.77;1737309;80;20183;-90
2021/09/01 01:18:05;;;;;;;;;;;;;;;13.74;98.83;98185.89;1734595;81;22631;-90
2021/09/01 01:20:30;;;;;;;;;;;;;;;13.71;98.84;98187.46;1735049;80;25983;-90
2021/09/01 01:22:56;;;;;;;;;;;;;;;13.70;98.85;98189.73;1736789;82;20270;-91
2021/09/01 01:25:30;;;;;;;;;;;;;;;13.69;98.86;98193.33;1736037;80;20242;-90
2021/09/01 01:27:56;;;;;;;;;;;;;;;13.70;98.87;98190.22;1730165;81;24925;-91
2021/09/01 01:30:30;;;;;;;;;;;;;;;13.68;98.87;98190.37;1730538;81;21953;-91
2021/09/01 01:32:58;;;;;;;;;;;;;;;13.66;98.86;98194.91;1733492;80;26091;-91
2021/09/01 01:35:33;;;;;;;;;;;;;;;13.62;98.87;98192.21;1738794;80;24611;-89
2021/09/01 01:37:57;;;;;;;;;;;;;;;13.60;98.88;98205.95;1731600;81;20473;-90
2021/09/01 01:40:34;;;;;;;;;;;;;;;13.58;98.90;98196.04;1730850;81;24837;-90
2021/09/01 01:43:00;;;;;;;;;;;;;;;13.57;98.89;98199.66;1735859;81;21991;-90
2021/09/01 01:45:37;;;;;;;;;;;;;;;13.61;98.92;98194.96;1734567;81;25956;-91
2021/09/01 01:48:16;;;;;;;;;;;;;;;13.62;98.92;98197.47;1736497;81;24497;-91
2021/09/01 01:50:43;;;;;;;;;;;;;;;13.57;98.92;98197.03;1736509;82;20376;-91
2021/09/01 01:53:10;;;;;;;;;;;;;;;13.58;98.93;98200.50;1735125;80;24847;-91
2021/09/01 01:55:36;;;;;;;;;;;;;;;13.57;98.94;98192.25;1735428;80;22113;-91
2021/09/01 01:58:07;;;;;;;;;;;;;;;13.53;98.94;98204.00;1736164;82;26598;-91
2021/09/01 02:00:45;;;;;;;;;;;;;;;13.53;98.95;98204.81;1732911;82;24431;-91
2021/09/01 02:03:11;;;;;;;;;;;;;;;13.56;99.00;98206.36;1730664;82;20473;-91
2021/09/01 02:05:39;;;;;;;;;;;;;;;13.55;98.99;98208.16;1738312;81;20761;-90
2021/09/01 02:08:05;;;;;;;;;;;;;;;13.56;98.99;98204.56;1734058;82;21937;-91
2021/09/01 02:10:31;;;;;;;;;;;;;;;13.53;99.00;98203.49;1733920;80;26009;-91
2021/09/01 02:12:57;;;;;;;;;;;;;;;13.53;99.04;98207.44;1735213;81;24387;-91
2021/09/01 02:15:32;;;;;;;;;;;;;;;13.54;99.06;98214.37;1731980;81;20876;-91
2021/09/01 02:17:58;;;;;;;;;;;;;;;13.51;99.08;98212.02;1726561;82;24865;-91
2021/09/01 02:20:31;;;;;;;;;;;;;;;13.46;99.08;98207.63;1727820;81;20264;-91
2021/09/01 02:22:59;;;;;;;;;;;;;;;13.49;99.09;98211.78;1738027;80;25993;-90
2021/09/01 02:25:33;;;;;;;;;;;;;;;13.50;99.07;98205.56;1732988;81;24473;-91
2021/09/01 02:28:04;;;;;;;;;;;;;;;13.49;99.09;98215.24;1734156;81;20331;-91
2021/09/01 02:30:37;;;;;;;;;;;;;;;13.49;99.10;98216.55;1731375;82;24918;-90
2021/09/01 02:33:03;;;;;;;;;;;;;;;13.46;99.10;98223.88;1736966;81;22028;-90
2021/09/01 02:35:31;;;;;;;;;;;;;;;13.47;99.09;98219.81;1735177;82;26147;-90
2021/09/01 02:37:58;;;;;;;;;;;;;;;13.49;99.08;98225.76;1734434;81;24813;-90
2021/09/01 02:40:28;;;;;;;;;;;;;;;13.42;99.10;98224.61;1735465;81;20314;-90
2021/09/01 02:42:56;;;;;;;;;;;;;;;13.35;99.07;98223.48;1739987;80;25513;-90
2021/09/01 02:45:29;;;;;;;;;;;;;;;13.35;99.07;98228.73;1735006;80;22741;-90
2021/09/01 02:48:02;;;;;;;;;;;;;;;13.33;99.06;98222.77;1736334;81;26032;-90
2021/09/01 02:50:28;;;;;;;;;;;;;;;13.30;99.05;98230.92;1737859;82;24590;-90
2021/09/01 02:52:54;;;;;;;;;;;;;;;13.31;99.05;98228.14;1734005;80;20334;-90
2021/09/01 02:55:21;;;;;;;;;;;;;;;13.32;99.07;98235.55;1735452;82;20231;-90
2021/09/01 03:14:19;;;;;;;;;;;;;;;13.61;99.35;98246.23;1724729;81;20288;-90
2021/09/01 03:16:46;;;;;;;;;;;;;;;13.59;99.40;98248.98;1698615;82;22722;-90
2021/09/01 03:19:13;;;;;;;;;;;;;;;13.55;99.39;98255.95;1706913;82;26028;-90
2021/09/01 03:21:39;;;;;;;;;;;;;;;13.54;99.37;98254.28;1702612;83;24492;-91
2021/09/01 03:24:05;;;;;;;;;;;;;;;13.53;99.32;98259.22;1701802;83;20161;-90
2021/09/01 03:26:32;;;;;;;;;;;;;;;13.49;99.27;98258.63;1700563;82;20734;-90
2021/09/01 03:29:01;;;;;;;;;;;;;;;13.46;99.24;98259.38;1696517;82;22088;-90
2021/09/01 03:31:27;;;;;;;;;;;;;;;13.38;99.20;98253.44;1704781;83;26008;-90
2021/09/01 03:33:53;;;;;;;;;;;;;;;13.33;99.17;98254.30;1706292;83;20615;-88
2021/09/01 03:36:19;;;;;;;;;;;;;;;13.30;99.13;98263.77;1701253;83;20871;-90
2021/09/01 03:38:46;;;;;;;;;;;;;;;13.28;99.10;98263.05;1704284;83;24353;-85
2021/09/01 03:41:20;;;;;;;;;;;;;;;13.26;99.10;98272.85;1700986;83;21842;-85
2021/09/01 03:43:46;;;;;;;;;;;;;;;13.24;99.09;98261.65;1701220;82;26166;-87
2021/09/01 03:46:12;;;;;;;;;;;;;;;13.23;99.08;98272.64;1706017;83;21121;-86
2021/09/01 03:48:38;;;;;;;;;;;;;;;13.22;99.08;98264.88;1703858;83;20316;-87
2021/09/01 03:51:03;;;;;;;;;;;;;;;13.20;99.08;98270.25;1696141;83;20234;-86
2021/09/01 03:53:29;;;;;;;;;;;;;;;13.14;99.06;98272.10;1705982;83;20226;-89
2021/09/01 03:55:55;;;;;;;;;;;;;;;13.11;99.04;98275.41;1701655;83;26050;-89
2021/09/01 03:58:32;;;;;;;;;;;;;;;13.09;99.04;98275.53;1709981;83;25264;-89
2021/09/01 04:00:58;;;;;;;;;;;;;;;13.12;99.06;98278.43;1710865;83;20249;-86
2021/09/01 04:03:24;;;;;;;;;;;;;;;13.10;99.06;98278.52;1701029;83;20208;-86
2021/09/01 04:05:49;;;;;;;;;;;;;;;13.10;99.07;98282.94;1701721;83;20298;-86
2021/09/01 04:08:15;;;;;;;;;;;;;;;13.07;99.10;98285.34;1706799;83;20918;-86
2021/09/01 04:10:41;;;;;;;;;;;;;;;13.08;99.10;98286.19;1702589;83;24506;-87
2021/09/01 04:13:09;;;;;;;;;;;;;;;13.02;99.12;98288.00;1685456;83;20812;-87
2021/09/01 04:15:36;;;;;;;;;;;;;;;13.00;99.12;98296.00;1665035;83;24598;-87
2021/09/01 04:18:01;;;;;;;;;;;;;;;13.00;99.17;98293.37;1663480;84;20238;-86
2021/09/01 04:20:27;;;;;;;;;;;;;;;12.98;99.16;98297.94;1661955;83;21048;-87
2021/09/01 04:22:54;;;;;;;;;;;;;;;12.99;99.22;98299.58;1662063;84;24586;-87
2021/09/01 04:25:19;;;;;;;;;;;;;;;12.95;99.20;98302.95;1655898;85;20345;-87
2021/09/01 04:27:46;;;;;;;;;;;;;;;12.92;99.22;98301.06;1653673;86;20185;-87
2021/09/01 04:30:12;;;;;;;;;;;;;;;12.90;99.20;98312.99;1663976;85;22009;-87
2021/09/01 04:32:38;;;;;;;;;;;;;;;12.91;99.26;98318.61;1651094;85;25876;-87
2021/09/01 04:35:04;;;;;;;;;;;;;;;12.91;99.26;98325.17;1659023;83;20408;-87
2021/09/01 04:37:34;;;;;;;;;;;;;;;12.89;99.28;98318.36;1663031;83;20243;-86
2021/09/01 04:40:00;;;;;;;;;;;;;;;12.87;99.33;98325.05;1665269;84;24389;-86
2021/09/01 04:42:35;;;;;;;;;;;;;;;12.86;99.35;98335.22;1666494;85;21979;-86
2021/09/01 04:45:01;;;;;;;;;;;;;;;12.91;99.36;98333.53;1665117;84;26171;-86
2021/09/01 04:47:27;;;;;;;;;;;;;;;12.92;99.40;98329.47;1660407;85;24387;-86
2021/09/01 04:49:53;;;;;;;;;;;;;;;12.89;99.42;98344.16;1669789;84;20225;-86
2021/09/01 04:52:19;;;;;;;;;;;;;;;12.90;99.44;98335.32;1664728;83;20243;-86
2021/09/01 04:54:45;;;;;;;;;;;;;;;12.95;99.46;98340.20;1676477;84;22105;-86
2021/09/01 04:57:11;;;;;;;;;;;;;;;12.91;99.50;98335.69;1657841;85;21081;-86
2021/09/01 04:59:37;;;;;;;;;;;;;;;12.93;99.54;98341.63;1675912;83;24726;-86
2021/09/01 05:02:03;;;;;;;;;;;;;;;12.94;99.55;98342.46;1658107;83;20927;-89
2021/09/01 05:04:30;;;;;;;;;;;;;;;12.95;99.60;98348.91;1666431;85;24321;-89
2021/09/01 05:06:56;;;;;;;;;;;;;;;12.95;99.61;98347.60;1661509;84;22103;-88
2021/09/01 05:09:22;;;;;;;;;;;;;;;12.95;99.64;98348.08;1662697;83;20916;-88
2021/09/01 05:11:48;;;;;;;;;;;;;;;12.98;99.67;98351.28;1651903;85;20360;-89
2021/09/01 05:14:14;;;;;;;;;;;;;;;12.97;99.68;98354.05;1632417;85;20240;-90
2021/09/01 05:16:42;;;;;;;;;;;;;;;13.01;99.71;98350.21;1662154;85;20313;-90
2021/09/01 05:19:12;;;;;;;;;;;;;;;12.99;99.74;98354.27;1663414;85;22704;-86
2021/09/01 05:21:40;;;;;;;;;;;;;;;12.99;99.76;98349.48;1665742;85;25991;-86
2021/09/01 05:24:06;;;;;;;;;;;;;;;12.98;99.77;98349.97;1667816;85;24526;-90
2021/09/01 05:26:34;;;;;;;;;;;;;;;13.02;99.82;98352.36;1655594;85;20271;-89
2021/09/01 05:29:04;;;;;;;;;;;;;;;13.02;99.81;98356.30;1670836;85;24341;-89
2021/09/01 05:31:31;;;;;;;;;;;;;;;13.01;99.83;98358.09;1633430;86;22334;-86
2021/09/01 05:33:59;;;;;;;;;;;;;;;13.04;99.85;98358.34;1633080;86;26061;-89
2021/09/01 05:36:28;;;;;;;;;;;;;;;13.07;99.89;98364.64;1667424;85;25212;-90
2021/09/01 05:38:55;;;;;;;;;;;;;;;13.00;99.90;98366.45;1654553;85;20211;-89
2021/09/01 05:41:29;;;;;;;;;;;;;;;12.99;99.91;98367.41;1662983;85;24325;-90
2021/09/01 05:43:56;;;;;;;;;;;;;;;12.99;99.92;98367.41;1657812;85;21977;-90
2021/09/01 05:46:31;;;;;;;;;;;;;;;12.98;99.93;98375.43;1668351;85;25312;-89
2021/09/01 05:48:59;;;;;;;;;;;;;;;12.97;99.88;98376.38;1669633;84;24385;-89
2021/09/01 05:51:26;;;;;;;;;;;;;;;12.97;99.91;98378.53;1662652;85;20238;-90
2021/09/01 05:53:53;;;;;;;;;;;;;;;12.96;99.90;98384.73;1665167;85;24306;-89
2021/09/01 05:56:21;;;;;;;;;;;;;;;13.00;99.90;98388.78;1653367;86;21983;-90
2021/09/01 05:58:49;;;;;;;;;;;;;;;12.99;99.91;98381.84;1651531;85;26121;-90
2021/09/01 06:01:16;;;;;;;;;;;;;;;12.96;99.94;98389.99;1657585;85;24538;-89
2021/09/01 06:03:44;;;;;;;;;;;;;;;12.95;99.96;98390.95;1662869;85;20180;-89
2021/09/01 06:06:11;;;;;;;;;;;;;;;12.97;99.95;98390.83;1661828;85;25227;-90
2021/09/01 06:08:38;;;;;;;;;;;;;;;12.99;99.99;98394.15;1667000;85;21977;-89
2021/09/01 06:11:11;;;;;;;;;;;;;;;12.98;99.98;98398.56;1657206;85;26834;-89
2021/09/01 06:13:37;;;;;;;;;;;;;;;12.95;100.00;98388.31;1673903;84;24380;-87
2021/09/01 06:16:04;;;;;;;;;;;;;;;12.94;100.00;98389.74;1698284;83;20254;-86
2021/09/01 06:18:32;;;;;;;;;;;;;;;12.94;100.00;98389.74;1702636;82;25019;-87
2021/09/01 06:20:59;;;;;;;;;;;;;;;12.91;100.00;98396.09;1698238;82;22183;-87
2021/09/01 06:23:25;;;;;;;;;;;;;;;12.91;100.00;98405.29;1703556;83;25949;-89
2021/09/01 06:25:50;;;;;;;;;;;;;;;12.92;100.00;98406.96;1699288;83;20991;-89
2021/09/01 06:28:17;;;;;;;;;;;;;;;12.92;100.00;98405.66;1661763;85;20881;-89
2021/09/01 06:30:43;;;;;;;;;;;;;;;12.93;100.00;98405.98;1658230;85;24454;-88
2021/09/01 06:33:09;;;;;;;;;;;;;;;12.94;100.00;98412.07;1662205;84;22066;-89
2021/09/01 06:35:35;;;;;;;;;;;;;;;12.91;100.00;98414.48;1672570;85;25945;-89
2021/09/01 06:38:01;;;;;;;;;;;;;;;12.90;100.00;98425.94;1702296;83;20363;-89
2021/09/01 06:40:30;;;;;;;;;;;;;;;12.89;100.00;98421.64;1698390;83;20290;-86
2021/09/01 06:42:56;;;;;;;;;;;;;;;12.93;100.00;98433.56;1700639;82;20375;-86
2021/09/01 06:45:22;;;;;;;;;;;;;;;12.92;100.00;98437.64;1696603;83;20270;-87
2021/09/01 06:47:50;;;;;;;;;;;;;;;12.91;100.00;98440.75;1704079;83;20921;-86
2021/09/01 06:50:18;;;;;;;;;;;;;;;13.00;100.00;98443.11;1692646;82;24542;-87
2021/09/01 06:52:45;;;;;;;;;;;;;;;12.96;100.00;98443.84;1695612;83;20164;-86
2021/09/01 06:55:14;;;;;;;;;;;;;;;12.95;100.00;98451.36;1698552;83;23790;-86
2021/09/01 06:57:40;;;;;;;;;;;;;;;12.94;100.00;98461.98;1697984;83;21949;-86
2021/09/01 07:00:08;;;;;;;;;;;;;;;12.88;100.00;98450.16;1692634;83;26036;-86
2021/09/01 07:02:34;;;;;;;;;;;;;;;12.93;100.00;98463.77;1697733;83;25198;-85
2021/09/01 07:05:00;;;;;;;;;;;;;;;12.97;100.00;98465.22;1699001;83;20500;-86
2021/09/01 07:07:29;;;;;;;;;;;;;;;13.00;100.00;98466.75;1695114;82;25051;-88
2021/09/01 07:09:55;;;;;;;;;;;;;;;13.02;100.00;98474.05;1695386;83;21997;-88
2021/09/01 07:12:27;;;;;;;;;;;;;;;12.96;100.00;98475.37;1703735;83;25982;-90
2021/09/01 07:14:52;;;;;;;;;;;;;;;12.98;100.00;98481.31;1682523;83;25124;-90
2021/09/01 07:17:18;;;;;;;;;;;;;;;12.97;100.00;98480.98;1682319;83;20450;-90
2021/09/01 07:19:50;;;;;;;;;;;;;;;12.91;100.00;98481.46;1676486;83;20259;-90
2021/09/01 07:22:17;;;;;;;;;;;;;;;12.90;100.00;98485.04;1673289;85;22673;-90
2021/09/01 07:24:43;;;;;;;;;;;;;;;12.93;100.00;98487.41;1675836;85;21052;-90
2021/09/01 07:27:09;;;;;;;;;;;;;;;12.94;100.00;98493.03;1676714;85;24459;-90
2021/09/01 07:29:36;;;;;;;;;;;;;;;12.91;100.00;98498.53;1678168;85;20245;-90
2021/09/01 07:32:03;;;;;;;;;;;;;;;12.92;100.00;98502.84;1675677;85;24601;-90
2021/09/01 07:34:33;;;;;;;;;;;;;;;12.95;100.00;98504.38;1678441;85;22037;-91
2021/09/01 07:36:59;;;;;;;;;;;;;;;12.94;100.00;98512.73;1676030;85;26065;-90
2021/09/01 07:39:25;;;;;;;;;;;;;;;12.92;100.00;98509.88;1676193;85;20814;-90
2021/09/01 07:41:51;;;;;;;;;;;;;;;12.98;100.00;98512.03;1652727;84;20885;-90
2021/09/01 07:44:21;;;;;;;;;;;;;;;13.02;100.00;98516.08;1663445;85;24642;-90
2021/09/01 07:46:47;;;;;;;;;;;;;;;13.05;100.00;98522.39;1661835;85;22109;-90
2021/09/01 07:49:13;;;;;;;;;;;;;;;13.00;100.00;98530.64;1676473;85;21146;-90
2021/09/01 07:51:39;;;;;;;;;;;;;;;13.00;100.00;98521.45;1675451;83;24506;-91
2021/09/01 07:54:08;;;;;;;;;;;;;;;13.01;100.00;98535.42;1676524;84;20224;-90
2021/09/01 07:56:34;;;;;;;;;;;;;;;12.98;100.00;98535.17;1677630;85;24560;-90
2021/09/01 07:59:00;;;;;;;;;;;;;;;13.02;100.00;98537.09;1679090;85;20901;-88
2021/09/01 08:01:26;;;;;;;;;;;;;;;13.01;100.00;98541.98;1673664;85;26100;-89
2021/09/01 08:03:52;;;;;;;;;;;;;;;13.00;100.00;98539.00;1674529;85;24503;-88
2021/09/01 08:06:18;;;;;;;;;;;;;;;13.01;100.00;98543.30;1676588;85;20542;-88
2021/09/01 08:08:44;;;;;;;;;;;;;;;13.00;100.00;98551.66;1673018;85;24611;-88
2021/09/01 08:11:10;;;;;;;;;;;;;;;12.99;100.00;98551.30;1669701;85;22087;-88
2021/09/01 08:13:36;;;;;;;;;;;;;;;12.99;100.00;98550.45;1672174;85;26036;-89
2021/09/01 08:16:02;;;;;;;;;;;;;;;13.03;100.00;98557.64;1684282;82;20262;-89
2021/09/01 08:18:28;;;;;;;;;;;;;;;13.05;100.00;98562.28;1690150;83;20890;-89
2021/09/01 08:20:54;;;;;;;;;;;;;;;13.05;100.00;98568.84;1691624;83;24581;-89
2021/09/01 08:23:20;;;;;;;;;;;;;;;13.05;100.00;98564.91;1684637;83;20306;-89
2021/09/01 08:25:46;;;;;;;;;;;;;;;13.05;100.00;98570.16;1677573;82;20858;-88
2021/09/01 08:28:12;;;;;;;;;;;;;;;13.07;100.00;98577.45;1675894;85;24414;-88
2021/09/01 08:30:38;;;;;;;;;;;;;;;13.13;100.00;98575.23;1664968;83;20872;-88
2021/09/01 08:33:06;;;;;;;;;;;;;;;13.13;100.00;98582.27;1670046;83;20779;-88
2021/09/01 08:35:33;;;;;;;;;;;;;;;13.16;100.00;98588.59;1672945;83;22075;-89
2021/09/01 08:37:59;;;;;;;;;;;;;;;13.18;100.00;98590.63;1671638;83;26153;-89
2021/09/01 08:40:25;;;;;;;;;;;;;;;13.18;100.00;98594.10;1672200;83;24404;-89
2021/09/01 08:42:51;;;;;;;;;;;;;;;13.18;100.00;98598.52;1667193;85;20494;-88
2021/09/01 08:45:18;;;;;;;;;;;;;;;13.19;100.00;98604.14;1667329;84;24540;-90
2021/09/01 08:47:44;;;;;;;;;;;;;;;13.22;100.00;98604.72;1681262;83;22060;-90
2021/09/01 08:50:12;;;;;;;;;;;;;;;13.27;100.00;98608.30;1696880;82;25863;-89
2021/09/01 08:52:38;;;;;;;;;;;;;;;13.30;100.00;98617.28;1691641;82;24552;-90
2021/09/01 08:55:06;;;;;;;;;;;;;;;13.32;100.00;98610.09;1695669;82;20207;-90
2021/09/01 08:57:32;;;;;;;;;;;;;;;13.40;100.00;98608.55;1692296;83;24543;-86
2021/09/01 08:59:58;;;;;;;;;;;;;;;13.46;100.00;98612.97;1685296;83;22108;-86
2021/09/01 09:02:30;;;;;;;;;;;;;;;13.49;100.00;98610.92;1690573;82;26134;-86
2021/09/01 09:04:57;;;;;;;;;;;;;;;13.51;100.00;98621.33;1685683;83;24488;-86
2021/09/01 09:07:23;;;;;;;;;;;;;;;13.53;100.00;98625.49;1691471;82;20533;-86
2021/09/01 09:09:50;;;;;;;;;;;;;;;13.55;100.00;98625.38;1685934;83;24596;-86
2021/09/01 09:12:17;;;;;;;;;;;;;;;13.53;100.00;98629.44;1690274;82;22149;-86
2021/09/01 09:14:47;;;;;;;;;;;;;;;13.54;100.00;98628.96;1688992;83;26230;-86
2021/09/01 09:17:15;;;;;;;;;;;;;;;13.58;100.00;98629.91;1701997;83;24748;-86
2021/09/01 09:19:49;;;;;;;;;;;;;;;13.59;100.00;98636.84;1696149;83;20232;-86
2021/09/01 09:22:21;;;;;;;;;;;;;;;13.57;100.00;98638.78;1673270;83;21897;-86
2021/09/01 09:25:01;;;;;;;;;;;;;;;13.57;100.00;98637.47;1697779;82;21920;-86
2021/09/01 09:27:45;;;;;;;;;;;;;;;13.57;100.00;98646.67;1696959;83;25886;-86
2021/09/01 09:30:22;;;;;;;;;;;;;;;13.62;100.00;98644.98;1696493;83;24518;-86
2021/09/01 09:32:55;;;;;;;;;;;;;;;13.71;100.00;98645.09;1695154;82;20146;-86
2021/09/01 09:35:22;;;;;;;;;;;;;;;13.75;100.00;98639.94;1702148;83;25332;-90
2021/09/01 09:38:00;;;;;;;;;;;;;;;13.77;100.00;98639.83;1697809;83;21841;-90
2021/09/01 09:40:31;;;;;;;;;;;;;;;13.83;100.00;98645.91;1696606;83;25994;-90
2021/09/01 09:42:57;;;;;;;;;;;;;;;13.87;100.00;98642.55;1697831;83;24542;-90
2021/09/01 09:45:25;;;;;;;;;;;;;;;13.96;100.00;98647.94;1698925;83;20275;-89
2021/09/01 09:47:52;;;;;;;;;;;;;;;14.06;100.00;98646.23;1694209;83;24631;-90
2021/09/01 09:50:19;;;;;;;;;;;;;;;14.15;100.00;98642.84;1704000;83;22959;-90
2021/09/01 09:52:45;;;;;;;;;;;;;;;14.18;100.00;98646.53;1692591;83;26089;-89
2021/09/01 09:55:12;;;;;;;;;;;;;;;14.25;100.00;98642.45;1699298;83;24483;-90
2021/09/01 09:57:52;;;;;;;;;;;;;;;14.31;100.00;98645.06;1695650;83;150572;-90
2021/09/01 10:00:18;;;;;;;;;;;;;;;14.42;100.00;98651.64;1697170;83;24615;-91
2021/09/01 10:02:45;;;;;;;;;;;;;;;14.55;100.00;98653.63;1702050;82;22315;-89
2021/09/01 10:05:12;;;;;;;;;;;;;;;14.64;100.00;98655.49;1696780;82;26036;-88
2021/09/01 10:07:38;;;;;;;;;;;;;;;14.75;100.00;98655.92;1695118;83;24488;-88
2021/09/01 10:10:04;;;;;;;;;;;;;;;14.81;100.00;98659.36;1697090;83;20216;-88
2021/09/01 10:12:30;;;;;;;;;;;;;;;14.92;100.00;98663.73;1699223;83;24635;-86
2021/09/01 10:14:58;;;;;;;;;;;;;;;15.03;100.00;98663.66;1699485;83;20855;-86
2021/09/01 10:17:25;;;;;;;;;;;;;;;15.14;100.00;98667.55;1695752;82;26024;-86
2021/09/01 10:19:53;;;;;;;;;;;;;;;15.22;100.00;98669.55;1663771;84;24619;-86
2021/09/01 10:22:19;;;;;;;;;;;;;;;15.27;100.00;98669.99;1663739;84;20273;-86
2021/09/01 10:24:45;;;;;;;;;;;;;;;15.30;100.00;98673.19;1648538;86;24912;-86
2021/09/01 10:27:24;;;;;;;;;;;;;;;15.32;100.00;98677.86;1662873;85;22030;-86
2021/09/01 10:29:50;;;;;;;;;;;;;;;15.30;100.00;98681.58;1665043;85;25736;-89
2021/09/01 10:32:21;;;;;;;;;;;;;;;15.25;100.00;98685.94;1650601;86;25301;-88
2021/09/01 10:34:47;;;;;;;;;;;;;;;15.24;100.00;98691.33;1651230;86;20468;-89
2021/09/01 10:37:24;;;;;;;;;;;;;;;15.23;100.00;98694.44;1652760;84;24554;-89
2021/09/01 10:39:50;;;;;;;;;;;;;;;15.19;100.00;98700.95;1616785;86;21998;-89
2021/09/01 10:45:21;;;;;;;;;;;;;;;15.05;100.00;98692.87;1568042;90;24530;-89
2021/09/01 10:47:52;;;;;;;;;;;;;;;15.18;100.00;98697.12;1591223;88;20245;-89
2021/09/01 10:50:32;;;;;;;;;;;;;;;15.23;100.00;98701.52;1590761;88;24615;-90
2021/09/01 10:52:59;;;;;;;;;;;;;;;15.27;100.00;98697.20;1563131;91;22174;-90
2021/09/01 10:55:25;;;;;;;;;;;;;;;15.33;100.00;98700.60;1533957;91;26950;-89
2021/09/01 10:58:10;;;;;;;;;;;;;;;15.34;100.00;98700.96;1540236;91;24045;-89
2021/09/01 11:00:39;;;;;;;;;;;;;;;15.30;100.00;98707.95;1537654;91;20221;-89
2021/09/01 11:03:05;;;;;;;;;;;;;;;15.31;100.00;98710.95;1567487;89;24596;-89
2021/09/01 11:05:37;;;;;;;;;;;;;;;15.36;100.00;98713.55;1537151;91;22271;-89
2021/09/01 11:08:03;;;;;;;;;;;;;;;15.38;100.00;98715.55;1538927;91;26216;-89
2021/09/01 11:10:32;;;;;;;;;;;;;;;15.36;100.00;98718.82;1535460;91;24428;-86
2021/09/01 11:12:59;;;;;;;;;;;;;;;15.32;100.00;98722.69;1536559;91;20495;-86
2021/09/01 11:15:27;;;;;;;;;;;;;;;15.30;100.00;98723.77;1538210;91;25336;-86
2021/09/01 11:18:08;;;;;;;;;;;;;;;15.28;100.00;98725.69;1546339;91;22862;-86
2021/09/01 11:20:38;;;;;;;;;;;;;;;15.32;100.00;98729.28;1544264;91;26943;-86
2021/09/01 11:23:04;;;;;;;;;;;;;;;15.32;100.00;98729.28;1591323;88;24519;-86
2021/09/01 11:25:30;;;;;;;;;;;;;;;15.40;100.00;98730.77;1590821;88;20267;-89
2021/09/01 11:27:59;;;;;;;;;;;;;;;15.45;100.00;98736.49;1591094;89;24744;-89
2021/09/01 11:30:31;;;;;;;;;;;;;;;15.49;100.00;98729.98;1559016;90;22757;-89
2021/09/01 11:32:58;;;;;;;;;;;;;;;15.49;100.00;98722.06;1538237;91;26003;-89
2021/09/01 11:35:29;;;;;;;;;;;;;;;15.54;99.99;98730.13;1535704;92;25044;-89
2021/09/01 11:37:56;;;;;;;;;;;;;;;15.61;100.00;98722.86;1508174;93;20253;-89
2021/09/01 11:40:24;;;;;;;;;;;;;;;15.76;100.00;98727.33;1540090;91;24623;-89
2021/09/01 11:42:50;;;;;;;;;;;;;;;15.95;100.00;98718.63;1538747;93;21978;-90
2021/09/01 11:45:16;;;;;;;;;;;;;;;16.13;100.00;98727.59;1535284;91;21084;-91
2021/09/01 11:47:43;;;;;;;;;;;;;;;16.23;100.00;98717.40;1589786;88;24541;-90
2021/09/01 11:50:13;;;;;;;;;;;;;;;16.27;100.00;98718.79;1588309;88;20542;-90
2021/09/01 11:52:39;;;;;;;;;;;;;;;16.29;100.00;98710.73;1591919;88;25217;-90
2021/09/01 11:55:07;;;;;;;;;;;;;;;16.37;100.00;98717.96;1592911;88;21960;-90
2021/09/01 11:57:33;;;;;;;;;;;;;;;16.45;100.00;98719.45;1588391;88;26255;-91
2021/09/01 12:00:00;;;;;;;;;;;;;;;16.44;99.89;98715.97;1589033;88;25007;-90
2021/09/01 12:02:28;;;;;;;;;;;;;;;16.41;99.77;98718.06;1593822;88;20274;-91
2021/09/01 12:04:54;;;;;;;;;;;;;;;16.38;99.66;98720.47;1589096;88;24532;-89
2021/09/01 12:07:28;;;;;;;;;;;;;;;16.45;99.53;98720.77;1585673;89;22064;-89
2021/09/01 12:09:54;;;;;;;;;;;;;;;16.45;99.44;98717.64;1586996;88;26061;-89
2021/09/01 12:12:20;;;;;;;;;;;;;;;16.50;99.37;98719.39;1588385;88;24608;-89
2021/09/01 12:14:46;;;;;;;;;;;;;;;16.44;99.16;98717.77;1588704;88;21561;-88
2021/09/01 12:17:17;;;;;;;;;;;;;;;16.33;98.93;98722.20;1583772;88;20275;-88
2021/09/01 12:19:49;;;;;;;;;;;;;;;16.27;98.71;98724.07;1593805;88;22030;-88
2021/09/01 12:22:20;;;;;;;;;;;;;;;16.28;98.54;98717.82;1591814;88;26009;-87
2021/09/01 12:24:46;;;;;;;;;;;;;;;16.27;98.31;98716.15;1573819;88;24548;-87
2021/09/01 12:27:12;;;;;;;;;;;;;;;16.45;98.14;98720.77;1589620;88;20368;-89
2021/09/01 12:29:40;;;;;;;;;;;;;;;16.63;98.10;98717.84;1587093;88;24600;-89
2021/09/01 12:32:11;;;;;;;;;;;;;;;16.86;98.16;98711.28;1586018;88;22131;-90
2021/09/01 12:34:39;;;;;;;;;;;;;;;16.90;98.09;98710.54;1590271;88;26071;-87
2021/09/01 12:37:16;;;;;;;;;;;;;;;16.89;97.94;98704.90;1588106;88;24528;-88
2021/09/01 12:39:47;;;;;;;;;;;;;;;16.89;97.80;98709.70;1583911;90;20578;-88
2021/09/01 12:42:33;;;;;;;;;;;;;;;16.91;97.66;98705.09;1586952;88;24582;-89
2021/09/01 12:45:00;;;;;;;;;;;;;;;16.85;97.43;98712.77;1579983;88;23031;-90
2021/09/01 12:47:27;;;;;;;;;;;;;;;16.74;97.17;98712.42;1579942;90;27080;-88
2021/09/01 12:49:54;;;;;;;;;;;;;;;16.72;96.98;98718.33;1585004;89;24472;-87
2021/09/01 12:52:22;;;;;;;;;;;;;;;16.68;96.76;98722.22;1576534;90;20490;-88
2021/09/01 12:54:55;;;;;;;;;;;;;;;16.69;96.55;98722.06;1585009;88;24584;-88
2021/09/01 12:57:22;;;;;;;;;;;;;;;16.68;96.36;98722.22;1577029;89;22660;-89
2021/09/01 12:59:48;;;;;;;;;;;;;;;16.68;96.11;98723.55;1585715;88;26009;-89
2021/09/01 13:02:14;;;;;;;;;;;;;;;16.77;95.96;98720.06;1585818;88;24524;-90
2021/09/01 13:04:40;;;;;;;;;;;;;;;16.91;95.85;98718.83;1594354;88;20231;-89
2021/09/01 13:07:07;;;;;;;;;;;;;;;17.15;95.83;98720.04;1573686;89;20259;-88